Sheridan, WY (82801)

5:00 PM MDT on March 23, 2017 (GMT -0600)
South Sheridan | | Change Station

Elev 3770 ft 44.79 °N, 106.95 °W | Updated 7 seconds ago

Rain
Rain
44.4 °F
Feels Like 44 °F
N
0.0
Wind Variable Wind from SSW
Gusts 0.0 mph

Today
High -- | Low -- °F
--% Chance of Precip.
Yesterday
High -- | Low -- °F
Precip. -- in
Pressure 29.90 in
Visibility 7.0 miles
Clouds Few 2200 ft
Mostly Cloudy 3000 ft
Overcast 3800 ft
Windchill 44 °F
Dew Point 43 °F
Humidity 93%
Rainfall 0.65 in
Snow Depth Not available.
7:04 AM 7:24 PM
Waning Crescent, 20% visible
METAR KSHR 232253Z AUTO 29010KT 7SM RA FEW022 BKN030 OVC038 07/04 A2988 RMK AO2 SLP123 P0006 T00670039
Pressure 29.90 in
Visibility 7.0 miles
Clouds Few 2200 ft
Mostly Cloudy 3000 ft
Overcast 3800 ft
Windchill 44 °F
Dew Point 43 °F
Humidity 93%
Rainfall 0.65 in
Snow Depth Not available.
7:04 AM 7:24 PM
Waning Crescent, 20% visible
METAR KSHR 232253Z AUTO 29010KT 7SM RA FEW022 BKN030 OVC038 07/04 A2988 RMK AO2 SLP123 P0006 T00670039

Get Severe Weather Alerts

Thanks for signing up!

Be on the lookout for a verification email in your inbox.

You'll start receiving the daily forecast at 8 AM.

×

10-Day Weather Forecast

Almanac

Astronomy

Mar. 23, 2017 Rise Set
Actual Time
Civil Twilight
Nautical Twilight
Astronomical Twilight
Moon
Length of Visible Light
Length of Day
Tomorrow will be .
, % of the Moon is Illuminated

Today's Extremes

State Highs State Lows

Community

WunderPhotos

Upload Photos

1,962,540 photos uploaded!

WunderBlog® & News

Nearby

Air Quality

  Air Quality AQ Index Pollutant
Not available.

Snow Depth

Station Depth Elevation

Earthquake Activity

City Distance Mag. Time & Date
Minimum magnitude displayed is 2.5.

Earthquake Activity

City Distance Mag. Time & Date
Minimum magnitude displayed is 2.5.

Coastal Water Temperatures

Place Temperature

Stations

Nearby Weather Stations

Station Location Temp. Windchill Dew Point Humidity Wind Precip. Elev Updated Type
                   

Watches & Warnings

There are currently no watches in effect.